createdAt,value
2019-04-30T00:01:31.804Z,4.35
2019-04-30T00:04:07.503Z,4.67
2019-04-30T00:06:39.643Z,6.25
2019-04-30T00:09:15.107Z,4.03
2019-04-30T00:11:50.700Z,4.08
2019-04-30T00:14:20.385Z,3.95
2019-04-30T00:16:52.065Z,6.50
2019-04-30T00:19:23.525Z,4.95
2019-04-30T00:22:00.072Z,4.47
2019-04-30T00:26:59.259Z,6.33
2019-04-30T00:29:31.175Z,7.12
2019-04-30T00:32:04.600Z,4.42
2019-04-30T00:34:39.360Z,6.35
2019-04-30T00:37:13.968Z,3.87
2019-04-30T00:39:51.174Z,4.17
2019-04-30T00:42:24.145Z,6.15
2019-04-30T00:47:32.435Z,3.55
2019-04-30T00:50:04.976Z,4.47
2019-04-30T00:52:37.459Z,4.35
2019-04-30T00:55:09.607Z,6.20
2019-04-30T00:57:43.565Z,5.53
2019-04-30T01:00:17.782Z,6.35
2019-04-30T01:03:09.321Z,2.72
2019-04-30T01:05:46.501Z,5.12
2019-04-30T01:08:15.415Z,4.60
2019-04-30T01:10:46.681Z,6.47
2019-04-30T01:13:19.181Z,3.87
2019-04-30T01:15:52.502Z,3.35
2019-04-30T01:18:28.539Z,3.17
2019-04-30T01:20:58.794Z,3.95
2019-04-30T01:23:30.438Z,5.95
2019-04-30T01:26:02.429Z,3.35
2019-04-30T01:28:34.181Z,7.42
2019-04-30T01:31:05.733Z,6.22
2019-04-30T01:33:39.034Z,3.55
2019-04-30T01:36:13.353Z,3.80
2019-04-30T01:38:48.192Z,2.65
2019-04-30T01:41:21.999Z,4.55
2019-04-30T01:43:51.657Z,5.72
2019-04-30T01:46:23.173Z,5.70
2019-04-30T01:48:54.787Z,4.35
2019-04-30T01:51:28.257Z,4.65
2019-04-30T01:54:00.491Z,2.72
2019-04-30T01:57:06.561Z,3.05
2019-04-30T01:59:55.613Z,5.05
2019-04-30T02:02:29.121Z,3.40
2019-04-30T02:05:00.883Z,2.17
2019-04-30T02:07:32.661Z,4.87
2019-04-30T02:10:04.566Z,3.42
2019-04-30T02:12:36.165Z,4.15
2019-04-30T02:15:09.465Z,5.42
2019-04-30T02:17:41.371Z,4.95
2019-04-30T02:20:13.281Z,5.60
2019-04-30T02:22:44.859Z,4.25
2019-04-30T02:25:16.737Z,5.42
2019-04-30T02:27:48.910Z,7.72
2019-04-30T02:30:21.148Z,5.27
2019-04-30T02:32:52.925Z,5.70
2019-04-30T02:35:46.359Z,5.50
2019-04-30T02:38:21.942Z,4.72
2019-04-30T02:40:54.817Z,4.92
2019-04-30T02:43:30.034Z,8.50
2019-04-30T02:46:04.763Z,8.25
2019-04-30T02:48:39.939Z,4.83
2019-04-30T02:51:14.115Z,4.33
2019-04-30T02:54:24.922Z,3.50
2019-04-30T02:57:29.933Z,5.00
2019-04-30T03:00:10.517Z,7.05
2019-04-30T03:02:42.050Z,2.90
2019-04-30T03:05:14.144Z,5.00
2019-04-30T03:07:45.765Z,3.65
2019-04-30T03:10:19.835Z,4.55
2019-04-30T03:12:51.132Z,4.37
2019-04-30T03:15:23.146Z,4.40
2019-04-30T03:18:10.885Z,4.80
2019-04-30T03:20:50.558Z,4.35
2019-04-30T03:23:22.544Z,7.12
2019-04-30T03:25:54.287Z,6.03
2019-04-30T03:28:26.263Z,4.33
2019-04-30T03:31:03.453Z,5.70
2019-04-30T03:36:03.477Z,4.70
2019-04-30T03:38:35.310Z,12.23
2019-04-30T03:41:09.632Z,6.75
2019-04-30T03:43:40.484Z,9.33
2019-04-30T03:46:12.873Z,7.40
2019-04-30T03:48:44.460Z,6.90
2019-04-30T03:51:16.203Z,5.47
2019-04-30T03:53:50.118Z,10.15
2019-04-30T03:58:53.269Z,10.50
2019-04-30T04:01:34.290Z,6.20
2019-04-30T04:04:20.195Z,5.35
2019-04-30T04:07:15.206Z,7.75
2019-04-30T04:09:51.628Z,4.70
2019-04-30T04:12:24.057Z,7.70
2019-04-30T04:14:55.971Z,5.43
2019-04-30T04:17:31.124Z,6.10
2019-04-30T04:20:01.991Z,4.83
2019-04-30T04:22:35.023Z,8.43
2019-04-30T04:25:12.682Z,21.57
2019-04-30T04:27:40.689Z,8.73
2019-04-30T04:30:12.293Z,8.10
2019-04-30T04:32:44.346Z,10.20
2019-04-30T04:35:16.526Z,10.28
2019-04-30T04:40:21.530Z,7.42
2019-04-30T04:42:53.228Z,7.35
2019-04-30T04:45:24.887Z,8.00
2019-04-30T04:47:56.644Z,8.43
2019-04-30T04:50:30.316Z,8.78
2019-04-30T04:53:01.567Z,9.15
2019-04-30T04:55:33.128Z,7.12
2019-04-30T04:58:04.514Z,7.53
2019-04-30T05:00:36.226Z,6.75
2019-04-30T05:03:14.009Z,4.22
2019-04-30T05:05:45.679Z,6.72
2019-04-30T05:08:18.575Z,5.95
2019-04-30T05:10:50.327Z,4.25
2019-04-30T05:13:21.915Z,5.33
2019-04-30T05:15:53.819Z,3.65
2019-04-30T05:18:25.258Z,5.92
2019-04-30T05:20:56.781Z,5.78
2019-04-30T05:23:29.829Z,10.55
2019-04-30T05:26:02.032Z,6.42
2019-04-30T05:28:33.577Z,5.97
2019-04-30T05:31:05.008Z,5.85
2019-04-30T05:33:36.633Z,7.20
2019-04-30T05:36:09.313Z,7.15
2019-04-30T05:38:40.992Z,4.55
2019-04-30T05:41:12.551Z,5.47
2019-04-30T05:43:44.047Z,7.33
2019-04-30T05:46:34.306Z,4.33
2019-04-30T05:49:05.977Z,4.35
2019-04-30T05:51:38.812Z,5.22
2019-04-30T05:54:12.914Z,4.92
2019-04-30T05:56:44.486Z,4.53
2019-04-30T05:59:16.503Z,8.85
2019-04-30T06:01:50.712Z,6.00
2019-04-30T06:04:21.959Z,7.05
2019-04-30T06:06:53.767Z,12.47
2019-04-30T06:09:38.655Z,6.70
2019-04-30T06:12:29.224Z,6.35
2019-04-30T06:15:22.897Z,5.62
2019-04-30T06:20:28.671Z,7.20
2019-04-30T06:23:01.548Z,5.00
2019-04-30T06:25:45.730Z,5.35
2019-04-30T06:28:06.668Z,8.00
2019-04-30T06:30:39.654Z,3.87
2019-04-30T06:33:12.611Z,5.72
2019-04-30T06:35:44.388Z,3.20
2019-04-30T06:38:16.275Z,6.12
2019-04-30T06:40:48.898Z,4.67
2019-04-30T06:43:22.741Z,5.83
2019-04-30T06:45:54.533Z,4.58
2019-04-30T06:48:26.720Z,5.47
2019-04-30T06:51:00.811Z,5.17
2019-04-30T06:53:32.502Z,6.20
2019-04-30T06:56:04.308Z,4.12
2019-04-30T06:58:36.231Z,3.95
2019-04-30T07:01:09.413Z,3.08
2019-04-30T07:03:42.454Z,4.15
2019-04-30T07:06:26.913Z,4.80
2019-04-30T07:09:13.334Z,5.55
2019-04-30T07:12:02.948Z,2.75
2019-04-30T07:14:34.920Z,4.75
2019-04-30T07:17:06.532Z,3.62
2019-04-30T07:19:53.301Z,6.20
2019-04-30T07:22:11.753Z,3.95
2019-04-30T07:24:43.652Z,5.28
2019-04-30T07:27:23.988Z,4.08
2019-04-30T07:29:52.641Z,3.72
2019-04-30T07:32:24.168Z,5.05
2019-04-30T07:34:55.914Z,4.30
2019-04-30T07:37:29.211Z,6.60
2019-04-30T07:40:00.814Z,3.00
2019-04-30T07:42:37.011Z,5.00
2019-04-30T07:45:06.882Z,5.55
2019-04-30T07:47:39.501Z,4.80
2019-04-30T07:50:12.170Z,5.37
2019-04-30T07:52:58.895Z,8.40
2019-04-30T07:55:19.623Z,3.80
2019-04-30T07:57:51.519Z,4.47
2019-04-30T08:00:23.291Z,3.02
2019-04-30T08:03:14.101Z,5.33
2019-04-30T08:05:46.600Z,2.12
2019-04-30T08:08:24.552Z,3.97
2019-04-30T08:10:51.423Z,2.98
2019-04-30T08:13:23.524Z,3.85
2019-04-30T08:15:55.417Z,6.78
2019-04-30T08:18:29.408Z,3.95
2019-04-30T08:21:01.091Z,5.45
2019-04-30T08:23:36.830Z,12.07
2019-04-30T08:26:08.692Z,6.60
2019-04-30T08:28:40.436Z,4.60
2019-04-30T08:31:12.096Z,3.02
2019-04-30T08:33:43.619Z,5.80
2019-04-30T08:36:15.591Z,2.70
2019-04-30T08:38:49.378Z,5.28
2019-04-30T08:41:21.071Z,7.20
2019-04-30T08:43:52.758Z,3.12
2019-04-30T08:46:24.281Z,3.77
2019-04-30T08:48:55.855Z,4.50
2019-04-30T08:51:30.499Z,4.97
2019-04-30T08:54:01.591Z,3.80
2019-04-30T08:56:33.599Z,5.25
2019-04-30T08:59:05.373Z,4.80
2019-04-30T09:01:38.686Z,3.62
2019-04-30T09:04:10.537Z,4.87
2019-04-30T09:06:42.517Z,2.87
2019-04-30T09:09:21.942Z,2.40
2019-04-30T09:11:55.775Z,3.50
2019-04-30T09:16:59.575Z,3.30
2019-04-30T09:19:31.356Z,2.72
2019-04-30T09:22:03.073Z,2.92
2019-04-30T09:24:35.033Z,2.47
2019-04-30T09:27:06.597Z,2.92
2019-04-30T09:29:39.144Z,4.67
2019-04-30T09:32:13.781Z,1.72
2019-04-30T09:34:45.737Z,2.40
2019-04-30T09:37:18.707Z,4.08
2019-04-30T09:42:21.344Z,4.70
2019-04-30T09:44:54.913Z,7.90
2019-04-30T09:47:26.955Z,6.87
2019-04-30T09:49:59.676Z,1.67
2019-04-30T09:52:31.801Z,3.40
2019-04-30T09:55:04.100Z,4.35
2019-04-30T09:57:35.708Z,1.25
2019-04-30T10:00:09.410Z,1.80
2019-04-30T10:02:42.906Z,1.90
2019-04-30T10:05:18.110Z,1.42
2019-04-30T10:07:50.013Z,2.83
2019-04-30T10:10:28.809Z,2.50
2019-04-30T10:13:03.155Z,1.95
2019-04-30T10:15:45.738Z,4.33
2019-04-30T10:18:17.523Z,2.60
2019-04-30T10:20:49.408Z,1.92
2019-04-30T10:23:20.887Z,2.15
2019-04-30T10:25:52.744Z,1.17
2019-04-30T10:28:24.984Z,2.12
2019-04-30T10:30:56.587Z,2.07
2019-04-30T10:33:28.755Z,1.75
2019-04-30T10:36:00.859Z,5.23
2019-04-30T10:38:32.741Z,1.62
2019-04-30T10:41:04.485Z,5.08
2019-04-30T10:43:35.934Z,1.65
2019-04-30T10:46:09.708Z,3.55
2019-04-30T10:48:43.421Z,1.82
2019-04-30T10:51:15.505Z,1.70
2019-04-30T10:53:48.616Z,1.50
2019-04-30T10:56:20.991Z,6.30
2019-04-30T10:58:52.821Z,1.77
2019-04-30T11:01:24.538Z,2.70
2019-04-30T11:03:56.335Z,0.85
2019-04-30T11:06:29.017Z,1.92
2019-04-30T11:09:00.786Z,1.45
2019-04-30T11:11:34.190Z,0.78
2019-04-30T11:14:05.774Z,5.33
2019-04-30T11:16:37.457Z,3.47
2019-04-30T11:19:09.591Z,5.75
2019-04-30T11:21:41.771Z,3.00
2019-04-30T11:24:13.682Z,2.35
2019-04-30T11:26:46.383Z,4.87
2019-04-30T11:31:57.033Z,3.65
2019-04-30T11:34:28.677Z,1.40
2019-04-30T11:37:00.154Z,1.65
2019-04-30T11:39:32.063Z,4.62
2019-04-30T11:42:03.718Z,1.67
2019-04-30T11:44:35.396Z,1.00
2019-04-30T11:47:37.267Z,5.65
2019-04-30T11:50:12.333Z,3.22
2019-04-30T11:52:44.444Z,3.42
2019-04-30T11:55:16.728Z,1.65
2019-04-30T11:57:49.503Z,2.08
2019-04-30T12:00:29.555Z,2.40
2019-04-30T12:03:00.978Z,2.90
2019-04-30T12:05:32.944Z,8.60
2019-04-30T12:08:14.818Z,1.62
2019-04-30T12:10:55.963Z,5.17
2019-04-30T12:13:34.594Z,10.20
2019-04-30T12:16:08.577Z,5.87
2019-04-30T12:18:40.471Z,8.10
2019-04-30T12:21:12.047Z,4.92
2019-04-30T12:23:43.881Z,8.73
2019-04-30T12:26:15.560Z,6.50
2019-04-30T12:28:47.229Z,3.77
2019-04-30T12:31:19.162Z,1.25
2019-04-30T12:33:50.817Z,1.57
2019-04-30T12:36:23.745Z,4.15
2019-04-30T12:39:04.930Z,1.35
2019-04-30T12:41:38.975Z,4.10
2019-04-30T12:44:10.263Z,3.90
2019-04-30T12:46:42.020Z,1.25
2019-04-30T12:49:14.216Z,2.08
2019-04-30T12:51:50.664Z,1.37
2019-04-30T12:54:34.575Z,1.82
2019-04-30T12:57:11.182Z,4.28
2019-04-30T12:59:43.470Z,2.37
2019-04-30T13:02:15.390Z,2.70
2019-04-30T13:04:49.280Z,4.28
2019-04-30T13:07:21.523Z,4.92
2019-04-30T13:09:54.128Z,2.25
2019-04-30T13:12:26.520Z,3.60
2019-04-30T13:14:58.621Z,1.35
2019-04-30T13:17:30.271Z,2.05
2019-04-30T13:20:01.773Z,36.70
2019-04-30T13:22:34.841Z,10.68
2019-04-30T13:25:06.743Z,9.30
2019-04-30T13:27:41.625Z,8.60
2019-04-30T13:30:24.060Z,11.80
2019-04-30T13:33:20.920Z,6.27
2019-04-30T13:35:52.835Z,19.57
2019-04-30T13:38:29.859Z,8.85
2019-04-30T13:41:08.892Z,2.85
2019-04-30T13:44:00.944Z,5.55
2019-04-30T13:46:32.482Z,13.93
2019-04-30T13:49:04.189Z,5.75
2019-04-30T13:51:36.051Z,17.00
2019-04-30T13:54:07.742Z,23.52
2019-04-30T13:56:39.837Z,9.03
2019-04-30T13:59:12.039Z,3.40
2019-04-30T14:01:43.939Z,2.27
2019-04-30T14:04:33.559Z,2.30
2019-04-30T14:07:15.846Z,2.20
2019-04-30T14:09:47.656Z,3.27
2019-04-30T14:12:19.172Z,4.80
2019-04-30T14:14:50.858Z,0.95
2019-04-30T14:17:22.841Z,6.12
2019-04-30T14:19:54.545Z,2.77
2019-04-30T14:22:26.613Z,6.00
2019-04-30T14:24:58.324Z,5.00
2019-04-30T14:27:30.204Z,4.30
2019-04-30T14:30:01.856Z,19.10
2019-04-30T14:32:33.866Z,15.18
2019-04-30T14:35:09.093Z,8.13
2019-04-30T14:37:40.709Z,5.12
2019-04-30T14:40:13.705Z,5.33
2019-04-30T14:43:12.753Z,5.03
2019-04-30T14:46:03.362Z,2.83
2019-04-30T14:48:41.610Z,2.60
2019-04-30T14:51:13.512Z,4.37
2019-04-30T14:53:58.782Z,5.22
2019-04-30T14:56:55.482Z,6.80
2019-04-30T14:59:55.504Z,4.50
2019-04-30T15:02:31.582Z,4.72
2019-04-30T15:05:03.622Z,2.52
2019-04-30T15:07:35.527Z,4.97
2019-04-30T15:10:07.827Z,15.00
2019-04-30T15:12:39.733Z,7.40
2019-04-30T15:15:11.894Z,11.12
2019-04-30T15:17:43.917Z,8.18
2019-04-30T15:20:15.907Z,5.75
2019-04-30T15:23:19.362Z,2.40
2019-04-30T15:25:51.758Z,6.12
2019-04-30T15:28:23.491Z,5.50
2019-04-30T15:30:55.505Z,18.55
2019-04-30T15:34:03.050Z,21.42
2019-04-30T15:36:34.844Z,27.42
2019-04-30T15:39:45.539Z,63.20
2019-04-30T15:42:19.742Z,64.47
2019-04-30T15:44:51.483Z,80.28
2019-04-30T15:47:23.465Z,92.08
2019-04-30T15:49:55.192Z,69.15
2019-04-30T15:52:28.767Z,51.23
2019-04-30T15:57:31.072Z,24.37
2019-04-30T16:00:02.932Z,31.27
2019-04-30T16:02:56.198Z,28.07
2019-04-30T16:05:40.809Z,29.80
2019-04-30T16:08:35.325Z,21.82
2019-04-30T16:11:25.901Z,24.72
2019-04-30T16:14:14.561Z,17.35
2019-04-30T16:16:52.040Z,13.95
2019-04-30T16:19:23.863Z,9.28
2019-04-30T16:21:55.614Z,12.28
2019-04-30T16:24:28.754Z,12.85
2019-04-30T16:27:00.629Z,9.05
2019-04-30T16:29:32.588Z,7.42
2019-04-30T16:32:04.307Z,6.33
2019-04-30T16:34:35.997Z,10.15
2019-04-30T16:37:07.642Z,9.05
2019-04-30T16:39:39.798Z,4.85
2019-04-30T16:42:12.558Z,9.25
2019-04-30T16:44:44.280Z,11.12
2019-04-30T16:47:17.054Z,10.53
2019-04-30T16:49:49.390Z,10.85
2019-04-30T16:52:20.959Z,10.60
2019-04-30T16:54:52.826Z,10.60
2019-04-30T16:57:24.417Z,12.88
2019-04-30T16:59:56.022Z,15.35
2019-04-30T17:02:29.848Z,19.07
2019-04-30T17:05:24.561Z,30.77
2019-04-30T17:08:06.837Z,16.60
2019-04-30T17:11:03.270Z,16.93
2019-04-30T17:13:40.240Z,12.05
2019-04-30T17:16:15.293Z,18.17
2019-04-30T17:18:49.254Z,14.73
2019-04-30T17:21:20.464Z,19.77
2019-04-30T17:23:52.461Z,25.62
2019-04-30T17:26:24.209Z,8.85
2019-04-30T17:28:55.943Z,6.03
2019-04-30T17:31:27.638Z,6.92
2019-04-30T17:33:59.231Z,4.25
2019-04-30T17:36:31.119Z,3.98
2019-04-30T17:39:03.180Z,5.25
2019-04-30T17:41:36.187Z,8.90
2019-04-30T17:44:08.852Z,4.87
2019-04-30T17:46:40.685Z,4.22
2019-04-30T17:49:13.055Z,7.15
2019-04-30T17:51:44.824Z,25.30
2019-04-30T17:54:16.811Z,29.72
2019-04-30T17:56:48.619Z,5.58
2019-04-30T17:59:20.506Z,4.40
2019-04-30T18:01:59.476Z,7.42
2019-04-30T18:04:31.067Z,4.58
2019-04-30T18:07:02.990Z,5.75
2019-04-30T18:09:34.893Z,5.40
2019-04-30T18:12:06.654Z,2.90
2019-04-30T18:14:39.584Z,4.55
2019-04-30T18:17:11.348Z,2.75
2019-04-30T18:20:01.821Z,3.33
2019-04-30T18:22:48.901Z,5.22
2019-04-30T18:25:34.408Z,2.83
2019-04-30T18:28:06.270Z,4.42
2019-04-30T18:30:39.292Z,2.87
2019-04-30T18:35:42.432Z,3.40
2019-04-30T18:38:13.987Z,5.58
2019-04-30T18:40:45.723Z,4.80
2019-04-30T18:43:20.401Z,4.22
2019-04-30T18:45:51.482Z,5.03
2019-04-30T18:48:23.341Z,7.55
2019-04-30T18:50:55.254Z,8.48
2019-04-30T18:53:28.698Z,9.35
2019-04-30T18:56:01.458Z,10.13
2019-04-30T18:58:40.010Z,8.43
2019-04-30T19:01:09.252Z,5.45
2019-04-30T19:03:41.164Z,4.15
2019-04-30T19:06:23.695Z,4.12
2019-04-30T19:09:00.487Z,4.03
2019-04-30T19:11:42.705Z,5.67
2019-04-30T19:14:30.500Z,9.48
2019-04-30T19:17:26.969Z,12.10
2019-04-30T19:20:29.872Z,13.05
2019-04-30T19:23:01.622Z,9.68
2019-04-30T19:25:33.672Z,18.23
2019-04-30T19:28:14.012Z,18.95
2019-04-30T19:30:39.580Z,8.30
2019-04-30T19:33:11.298Z,8.80
2019-04-30T19:35:42.885Z,17.57
2019-04-30T19:38:15.051Z,8.50
2019-04-30T19:40:49.259Z,3.97
2019-04-30T19:43:20.656Z,8.53
2019-04-30T19:45:52.425Z,6.53
2019-04-30T19:48:24.083Z,7.03
2019-04-30T19:50:55.905Z,6.33
2019-04-30T19:53:27.659Z,9.03
2019-04-30T19:55:59.421Z,6.03
2019-04-30T19:58:48.127Z,4.85
2019-04-30T20:01:04.646Z,4.67
2019-04-30T20:03:36.263Z,6.00
2019-04-30T20:06:09.043Z,4.72
2019-04-30T20:08:41.796Z,4.97
2019-04-30T20:11:13.178Z,1.20
2019-04-30T20:13:44.922Z,1.30
2019-04-30T20:16:16.784Z,2.20
2019-04-30T20:18:49.111Z,2.77
2019-04-30T20:21:28.021Z,4.00
2019-04-30T20:23:55.994Z,3.65
2019-04-30T20:26:28.888Z,3.45
2019-04-30T20:29:00.673Z,4.17
2019-04-30T20:31:32.224Z,2.67
2019-04-30T20:34:04.313Z,4.22
2019-04-30T20:36:36.128Z,2.02
2019-04-30T20:39:33.794Z,1.40
2019-04-30T20:42:05.741Z,3.83
2019-04-30T20:44:38.986Z,3.98
2019-04-30T20:47:10.809Z,5.37
2019-04-30T20:49:42.477Z,2.90
2019-04-30T20:52:14.170Z,2.95
2019-04-30T20:54:48.946Z,3.95
2019-04-30T20:57:20.364Z,7.30
2019-04-30T20:59:52.198Z,3.70
2019-04-30T21:02:23.856Z,7.55
2019-04-30T21:04:55.697Z,8.13
2019-04-30T21:07:27.307Z,3.55
2019-04-30T21:10:00.446Z,5.85
2019-04-30T21:12:32.140Z,6.78
2019-04-30T21:15:05.038Z,5.75
2019-04-30T21:17:36.675Z,3.98
2019-04-30T21:20:09.824Z,2.27
2019-04-30T21:25:14.321Z,5.62
2019-04-30T21:27:46.219Z,5.00
2019-04-30T21:30:18.095Z,4.10
2019-04-30T21:33:00.457Z,4.60
2019-04-30T21:35:34.755Z,2.35
2019-04-30T21:38:06.514Z,3.17
2019-04-30T21:40:39.427Z,6.30
2019-04-30T21:45:42.298Z,3.12
2019-04-30T21:48:14.092Z,2.58
2019-04-30T21:50:46.123Z,8.28
2019-04-30T21:53:19.538Z,8.93
2019-04-30T21:55:51.277Z,2.95
2019-04-30T21:58:23.040Z,3.05
2019-04-30T22:01:20.391Z,2.62
2019-04-30T22:03:53.439Z,3.20
2019-04-30T22:06:25.058Z,3.00
2019-04-30T22:08:58.462Z,3.45
2019-04-30T22:11:30.046Z,8.90
2019-04-30T22:14:01.568Z,7.87
2019-04-30T22:16:34.408Z,11.73
2019-04-30T22:19:05.985Z,10.68
2019-04-30T22:21:39.450Z,11.15
2019-04-30T22:26:41.356Z,5.60
2019-04-30T22:29:12.897Z,6.22
2019-04-30T22:31:44.426Z,6.55
2019-04-30T22:34:16.287Z,2.87
2019-04-30T22:36:49.036Z,2.27
2019-04-30T22:39:31.592Z,4.42
2019-04-30T22:42:30.101Z,5.92
2019-04-30T22:45:02.979Z,5.28
2019-04-30T22:47:34.314Z,7.58
2019-04-30T22:50:08.895Z,5.58
2019-04-30T22:52:40.391Z,5.03
2019-04-30T22:55:12.274Z,9.60
2019-04-30T22:57:44.195Z,6.53
2019-04-30T23:00:22.743Z,4.08
2019-04-30T23:02:58.177Z,6.22
2019-04-30T23:05:29.646Z,3.35
2019-04-30T23:08:01.496Z,4.37
2019-04-30T23:10:33.295Z,4.08
2019-04-30T23:13:04.904Z,4.20
2019-04-30T23:15:36.966Z,7.08
2019-04-30T23:18:20.785Z,10.43
2019-04-30T23:20:52.705Z,9.08
2019-04-30T23:23:24.693Z,11.93
2019-04-30T23:25:56.578Z,9.13
2019-04-30T23:28:28.175Z,7.50
2019-04-30T23:31:00.000Z,9.38
2019-04-30T23:33:31.553Z,10.70
2019-04-30T23:36:03.223Z,4.00
2019-04-30T23:38:34.857Z,5.30
2019-04-30T23:41:06.819Z,4.45
2019-04-30T23:43:38.251Z,4.60
2019-04-30T23:46:09.892Z,2.87
2019-04-30T23:48:41.460Z,2.22
2019-04-30T23:51:13.115Z,1.30
2019-04-30T23:53:44.699Z,2.05
2019-04-30T23:56:16.573Z,2.90
2019-04-30T23:58:48.204Z,1.85
